createdAt,value
2018-03-06T00:00:03.326Z,2.00
2018-03-06T00:01:05.876Z,2.13
2018-03-06T00:02:08.424Z,1.90
2018-03-06T00:03:10.949Z,1.70
2018-03-06T00:04:13.492Z,1.60
2018-03-06T00:05:16.048Z,2.20
2018-03-06T00:06:18.600Z,1.57
2018-03-06T00:07:21.146Z,1.80
2018-03-06T00:08:23.713Z,1.70
2018-03-06T00:09:26.235Z,1.47
2018-03-06T00:10:28.784Z,1.60
2018-03-06T00:11:31.318Z,1.90
2018-03-06T00:12:33.877Z,1.90
2018-03-06T00:13:36.432Z,1.60
2018-03-06T00:14:38.970Z,2.00
2018-03-06T00:15:41.494Z,1.70
2018-03-06T00:16:44.013Z,1.67
2018-03-06T00:17:46.555Z,1.50
2018-03-06T00:18:49.120Z,1.40
2018-03-06T00:19:51.664Z,1.43
2018-03-06T00:20:54.187Z,2.00
2018-03-06T00:21:56.731Z,1.70
2018-03-06T00:22:59.271Z,1.80
2018-03-06T00:24:01.824Z,1.87
2018-03-06T00:25:04.358Z,1.80
2018-03-06T00:26:06.893Z,1.60
2018-03-06T00:27:09.457Z,2.13
2018-03-06T00:28:11.997Z,1.87
2018-03-06T00:29:14.542Z,1.70
2018-03-06T00:30:17.081Z,1.50
2018-03-06T00:31:19.630Z,1.77
2018-03-06T00:32:22.170Z,1.80
2018-03-06T00:33:24.720Z,1.70
2018-03-06T00:34:27.264Z,1.70
2018-03-06T00:35:29.827Z,1.90
2018-03-06T00:36:32.357Z,1.90
2018-03-06T00:37:34.882Z,1.60
2018-03-06T00:38:37.942Z,1.80
2018-03-06T00:39:40.477Z,1.83
2018-03-06T00:40:43.018Z,2.00
2018-03-06T00:41:45.554Z,2.00
2018-03-06T00:42:48.096Z,1.97
2018-03-06T00:43:50.629Z,1.70
2018-03-06T00:44:53.150Z,1.80
2018-03-06T00:45:55.701Z,1.70
2018-03-06T00:46:58.244Z,1.73
2018-03-06T00:48:00.796Z,2.03
2018-03-06T00:49:03.329Z,1.93
2018-03-06T00:50:05.864Z,2.60
2018-03-06T00:51:08.420Z,1.50
2018-03-06T00:52:10.956Z,1.50
2018-03-06T00:53:13.508Z,1.70
2018-03-06T00:54:16.022Z,1.47
2018-03-06T00:55:18.574Z,1.60
2018-03-06T00:56:21.131Z,1.93
2018-03-06T00:57:23.684Z,1.70
2018-03-06T00:58:26.224Z,1.63
2018-03-06T00:59:28.771Z,1.80
2018-03-06T01:00:31.303Z,1.60
2018-03-06T01:01:33.839Z,1.60
2018-03-06T01:02:36.365Z,1.40
2018-03-06T01:03:38.916Z,1.70
2018-03-06T01:04:41.458Z,2.07
2018-03-06T01:05:44.000Z,1.60
2018-03-06T01:06:46.523Z,1.87
2018-03-06T01:07:49.068Z,1.63
2018-03-06T01:08:51.610Z,1.67
2018-03-06T01:09:54.147Z,1.53
2018-03-06T01:10:56.689Z,1.93
2018-03-06T01:11:59.235Z,1.80
2018-03-06T01:13:01.768Z,1.57
2018-03-06T01:14:04.317Z,1.80
2018-03-06T01:15:06.864Z,1.60
2018-03-06T01:16:09.397Z,1.60
2018-03-06T01:17:11.944Z,1.93
2018-03-06T01:18:14.492Z,1.90
2018-03-06T01:19:17.044Z,1.50
2018-03-06T01:20:19.666Z,2.10
2018-03-06T01:21:22.215Z,1.90
2018-03-06T01:22:24.745Z,1.70
2018-03-06T01:23:27.285Z,1.73
2018-03-06T01:24:29.818Z,1.20
2018-03-06T01:25:32.385Z,1.70
2018-03-06T01:26:34.882Z,2.00
2018-03-06T01:27:37.401Z,2.00
2018-03-06T01:28:39.934Z,1.80
2018-03-06T01:29:42.462Z,1.40
2018-03-06T01:30:45.004Z,1.70
2018-03-06T01:31:47.530Z,1.60
2018-03-06T01:32:50.079Z,1.57
2018-03-06T01:33:52.620Z,1.30
2018-03-06T01:34:55.168Z,1.70
2018-03-06T01:35:57.697Z,1.53
2018-03-06T01:37:00.236Z,1.60
2018-03-06T01:38:02.780Z,1.40
2018-03-06T01:39:05.321Z,1.33
2018-03-06T01:40:07.858Z,1.57
2018-03-06T01:41:10.385Z,1.63
2018-03-06T01:42:12.915Z,1.53
2018-03-06T01:43:15.445Z,1.67
2018-03-06T01:44:17.988Z,1.80
2018-03-06T01:45:20.536Z,1.60
2018-03-06T01:46:23.086Z,1.20
2018-03-06T01:47:25.654Z,1.40
2018-03-06T01:48:28.204Z,2.00
2018-03-06T01:49:30.753Z,1.70
2018-03-06T01:50:33.300Z,1.63
2018-03-06T01:53:11.820Z,1.80
2018-03-06T01:54:14.345Z,1.50
2018-03-06T01:55:16.892Z,1.50
2018-03-06T01:56:19.433Z,1.40
2018-03-06T01:57:21.981Z,1.80
2018-03-06T01:58:24.540Z,1.37
2018-03-06T01:59:27.080Z,1.60
2018-03-06T02:00:29.605Z,1.60
2018-03-06T02:01:32.141Z,1.50
2018-03-06T02:02:34.682Z,1.53
2018-03-06T02:03:37.230Z,1.53
2018-03-06T02:04:39.768Z,1.90
2018-03-06T02:05:42.305Z,1.70
2018-03-06T02:06:44.830Z,1.50
2018-03-06T02:07:47.384Z,1.60
2018-03-06T02:08:49.955Z,1.30
2018-03-06T02:09:52.486Z,1.43
2018-03-06T02:10:55.033Z,1.33
2018-03-06T02:11:57.572Z,1.63
2018-03-06T02:13:00.113Z,1.57
2018-03-06T02:14:02.680Z,2.00
2018-03-06T02:15:05.218Z,2.27
2018-03-06T02:16:07.756Z,1.47
2018-03-06T02:17:10.458Z,1.80
2018-03-06T02:18:13.011Z,2.00
2018-03-06T02:19:15.621Z,1.57
2018-03-06T02:20:18.165Z,2.07
2018-03-06T02:21:20.698Z,1.90
2018-03-06T02:22:23.236Z,1.30
2018-03-06T02:23:25.775Z,1.20
2018-03-06T02:24:28.340Z,1.70
2018-03-06T02:25:30.897Z,1.70
2018-03-06T02:26:33.434Z,1.77
2018-03-06T02:27:35.965Z,1.70
2018-03-06T02:28:38.516Z,1.43
2018-03-06T02:29:41.067Z,1.67
2018-03-06T02:30:43.598Z,1.50
2018-03-06T02:31:46.218Z,1.83
2018-03-06T02:32:48.766Z,1.70
2018-03-06T02:33:51.307Z,1.50
2018-03-06T02:34:53.858Z,1.30
2018-03-06T02:35:56.417Z,1.60
2018-03-06T02:36:58.953Z,1.83
2018-03-06T02:38:01.485Z,1.63
2018-03-06T02:39:04.017Z,1.50
2018-03-06T02:40:06.553Z,1.60
2018-03-06T02:41:09.094Z,1.30
2018-03-06T02:42:11.617Z,1.63
2018-03-06T02:43:14.151Z,1.53
2018-03-06T02:44:16.719Z,1.47
2018-03-06T02:45:19.268Z,1.50
2018-03-06T02:46:21.811Z,1.30
2018-03-06T02:47:24.352Z,1.30
2018-03-06T02:48:26.890Z,1.67
2018-03-06T02:49:29.447Z,1.63
2018-03-06T02:50:31.982Z,1.70
2018-03-06T02:51:34.522Z,1.67
2018-03-06T02:52:37.059Z,1.40
2018-03-06T02:53:39.623Z,1.80
2018-03-06T02:54:42.161Z,1.70
2018-03-06T02:55:44.690Z,1.37
2018-03-06T02:56:47.251Z,1.67
2018-03-06T02:57:49.804Z,1.70
2018-03-06T02:58:52.356Z,1.60
2018-03-06T02:59:54.931Z,1.77
2018-03-06T03:00:57.488Z,1.50
2018-03-06T03:02:00.031Z,1.20
2018-03-06T03:03:02.576Z,1.50
2018-03-06T03:04:05.114Z,1.57
2018-03-06T03:05:07.675Z,1.30
2018-03-06T03:06:10.211Z,1.53
2018-03-06T03:07:12.742Z,1.70
2018-03-06T03:08:15.265Z,1.90
2018-03-06T03:09:17.807Z,1.50
2018-03-06T03:10:20.384Z,1.93
2018-03-06T03:11:22.926Z,1.70
2018-03-06T03:12:25.540Z,1.20
2018-03-06T03:13:28.067Z,1.53
2018-03-06T03:14:30.612Z,1.60
2018-03-06T03:15:33.180Z,1.60
2018-03-06T03:16:35.720Z,1.40
2018-03-06T03:17:38.258Z,1.87
2018-03-06T03:18:40.816Z,1.73
2018-03-06T03:19:43.352Z,1.50
2018-03-06T03:20:45.889Z,1.40
2018-03-06T03:21:48.430Z,1.40
2018-03-06T03:22:50.978Z,1.50
2018-03-06T03:23:53.507Z,1.67
2018-03-06T03:24:56.033Z,1.50
2018-03-06T03:25:58.579Z,1.23
2018-03-06T03:27:01.132Z,1.20
2018-03-06T03:28:03.654Z,1.50
2018-03-06T03:29:06.191Z,1.50
2018-03-06T03:30:08.726Z,1.50
2018-03-06T03:31:11.261Z,1.40
2018-03-06T03:32:13.808Z,1.30
2018-03-06T03:33:16.381Z,1.50
2018-03-06T03:34:18.910Z,1.40
2018-03-06T03:35:21.480Z,1.60
2018-03-06T03:36:24.018Z,1.50
2018-03-06T03:37:26.565Z,1.77
2018-03-06T03:38:29.097Z,1.30
2018-03-06T03:39:31.642Z,1.80
2018-03-06T03:40:34.191Z,1.63
2018-03-06T03:41:36.721Z,1.53
2018-03-06T03:42:39.273Z,1.80
2018-03-06T03:43:42.197Z,1.93
2018-03-06T03:44:44.764Z,1.53
2018-03-06T03:45:47.314Z,1.20
2018-03-06T03:46:49.857Z,1.50
2018-03-06T03:47:52.393Z,1.70
2018-03-06T03:48:54.921Z,1.50
2018-03-06T03:49:57.452Z,1.40
2018-03-06T03:51:00.003Z,1.50
2018-03-06T03:52:02.551Z,1.20
2018-03-06T03:53:05.105Z,1.40
2018-03-06T03:54:07.633Z,1.63
2018-03-06T03:55:10.192Z,1.50
2018-03-06T03:56:12.788Z,1.40
2018-03-06T03:57:15.327Z,2.20
2018-03-06T03:58:17.901Z,1.57
2018-03-06T03:59:20.452Z,1.50
2018-03-06T04:00:23.028Z,1.60
2018-03-06T04:01:25.578Z,2.50
2018-03-06T04:02:28.105Z,1.33
2018-03-06T04:03:30.666Z,2.00
2018-03-06T04:04:33.211Z,1.50
2018-03-06T04:05:35.750Z,1.60
2018-03-06T04:06:38.305Z,1.47
2018-03-06T04:07:40.829Z,1.90
2018-03-06T04:08:43.377Z,1.80
2018-03-06T04:09:45.965Z,1.70
2018-03-06T04:10:48.587Z,2.73
2018-03-06T04:11:51.149Z,1.90
2018-03-06T04:12:53.701Z,1.47
2018-03-06T04:13:56.257Z,1.40
2018-03-06T04:14:58.832Z,1.40
2018-03-06T04:16:01.407Z,2.00
2018-03-06T04:17:03.934Z,1.43
2018-03-06T04:18:06.508Z,1.57
2018-03-06T04:19:09.056Z,1.60
2018-03-06T04:20:11.623Z,1.37
2018-03-06T04:21:14.178Z,1.40
2018-03-06T04:22:16.768Z,1.47
2018-03-06T04:23:19.327Z,2.50
2018-03-06T04:24:21.869Z,1.90
2018-03-06T04:25:24.412Z,1.33
2018-03-06T04:26:26.934Z,2.10
2018-03-06T04:27:29.488Z,1.97
2018-03-06T04:28:32.015Z,1.50
2018-03-06T04:29:34.545Z,1.77
2018-03-06T04:30:37.085Z,1.67
2018-03-06T04:31:39.622Z,1.70
2018-03-06T04:32:42.188Z,1.57
2018-03-06T04:33:44.743Z,2.07
2018-03-06T04:34:47.276Z,1.40
2018-03-06T04:35:49.845Z,1.57
2018-03-06T04:36:52.420Z,1.50
2018-03-06T04:37:54.945Z,1.77
2018-03-06T04:38:57.473Z,1.40
2018-03-06T04:40:00.020Z,1.80
2018-03-06T04:41:02.576Z,1.43
2018-03-06T04:42:05.340Z,1.20
2018-03-06T04:43:07.886Z,1.40
2018-03-06T04:44:10.408Z,2.00
2018-03-06T04:45:12.983Z,1.47
2018-03-06T04:46:15.552Z,2.00
2018-03-06T04:47:18.065Z,1.60
2018-03-06T04:48:20.603Z,1.70
2018-03-06T04:49:23.137Z,1.80
2018-03-06T04:50:25.683Z,1.60
2018-03-06T04:51:28.232Z,1.60
2018-03-06T04:52:30.782Z,1.37
2018-03-06T04:53:33.367Z,1.93
2018-03-06T04:54:35.923Z,1.33
2018-03-06T04:55:38.465Z,1.87
2018-03-06T04:56:41.032Z,1.37
2018-03-06T04:57:43.594Z,1.50
2018-03-06T04:58:46.144Z,1.70
2018-03-06T04:59:48.686Z,1.50
2018-03-06T05:00:51.227Z,1.87
2018-03-06T05:01:53.768Z,1.53
2018-03-06T05:02:56.332Z,1.57
2018-03-06T05:03:58.879Z,1.73
2018-03-06T05:05:01.423Z,1.60
2018-03-06T05:06:03.972Z,1.73
2018-03-06T05:07:06.514Z,1.37
2018-03-06T05:08:09.075Z,1.90
2018-03-06T05:09:11.613Z,1.67
2018-03-06T05:10:14.163Z,1.80
2018-03-06T05:11:16.701Z,1.87
2018-03-06T05:12:19.234Z,1.57
2018-03-06T05:13:21.819Z,2.07
2018-03-06T05:14:24.388Z,1.57
2018-03-06T05:15:26.925Z,1.70
2018-03-06T05:16:29.568Z,1.47
2018-03-06T05:17:32.116Z,2.00
2018-03-06T05:18:34.670Z,1.63
2018-03-06T05:19:37.212Z,1.80
2018-03-06T05:20:39.770Z,1.30
2018-03-06T05:21:42.315Z,1.80
2018-03-06T05:22:44.872Z,1.50
2018-03-06T05:23:47.440Z,1.40
2018-03-06T05:24:49.985Z,1.37
2018-03-06T05:25:52.524Z,1.33
2018-03-06T05:26:55.119Z,1.40
2018-03-06T05:27:57.606Z,1.23
2018-03-06T05:29:00.137Z,1.20
2018-03-06T05:30:02.705Z,1.33
2018-03-06T05:31:05.282Z,1.60
2018-03-06T05:32:07.852Z,1.40
2018-03-06T05:33:10.420Z,1.57
2018-03-06T05:34:12.945Z,1.80
2018-03-06T05:35:15.492Z,1.30
2018-03-06T05:36:18.026Z,1.67
2018-03-06T05:37:20.557Z,1.43
2018-03-06T05:38:23.116Z,1.73
2018-03-06T05:39:25.690Z,1.70
2018-03-06T05:40:28.350Z,1.40
2018-03-06T05:41:30.891Z,1.40
2018-03-06T05:42:33.444Z,1.60
2018-03-06T05:43:36.009Z,1.30
2018-03-06T05:44:38.563Z,1.40
2018-03-06T05:45:41.108Z,1.13
2018-03-06T05:46:43.668Z,1.00
2018-03-06T05:47:46.191Z,1.50
2018-03-06T05:48:48.756Z,1.60
2018-03-06T05:49:51.291Z,1.57
2018-03-06T05:50:53.834Z,1.80
2018-03-06T05:51:56.419Z,2.05
2018-03-06T05:52:59.095Z,1.33
2018-03-06T05:54:01.734Z,1.60
2018-03-06T05:55:04.405Z,1.33
2018-03-06T05:56:07.080Z,1.27
2018-03-06T05:57:09.716Z,1.23
2018-03-06T05:58:12.343Z,1.37
2018-03-06T05:59:14.950Z,1.30
2018-03-06T06:00:17.508Z,2.07
2018-03-06T06:01:20.038Z,1.50
2018-03-06T06:02:22.578Z,1.30
2018-03-06T06:03:25.124Z,1.47
2018-03-06T06:04:27.677Z,1.50
2018-03-06T06:05:30.228Z,1.67
2018-03-06T06:06:32.762Z,1.20
2018-03-06T06:07:35.300Z,1.50
2018-03-06T06:08:38.450Z,1.60
2018-03-06T06:09:41.467Z,1.40
2018-03-06T06:10:44.018Z,1.43
2018-03-06T06:11:47.001Z,1.60
2018-03-06T06:12:49.533Z,1.23
2018-03-06T06:13:52.073Z,1.40
2018-03-06T06:14:54.594Z,1.80
2018-03-06T06:15:57.128Z,1.83
2018-03-06T06:16:59.658Z,1.53
2018-03-06T06:18:02.230Z,1.47
2018-03-06T06:19:04.791Z,1.33
2018-03-06T06:20:07.302Z,1.60
2018-03-06T06:21:09.839Z,1.60
2018-03-06T06:22:12.693Z,1.03
2018-03-06T06:23:15.259Z,1.43
2018-03-06T06:24:17.932Z,2.07
2018-03-06T06:25:20.720Z,3.20
2018-03-06T06:26:23.356Z,2.27
2018-03-06T06:27:26.032Z,2.07
2018-03-06T06:28:28.628Z,2.20
2018-03-06T06:29:31.363Z,1.77
2018-03-06T06:30:33.908Z,2.00
2018-03-06T06:31:36.466Z,2.33
2018-03-06T06:32:39.008Z,2.20
2018-03-06T06:33:41.513Z,2.43
2018-03-06T06:34:44.037Z,2.30
2018-03-06T06:35:46.564Z,2.17
2018-03-06T06:36:49.112Z,2.90
2018-03-06T06:37:51.638Z,1.70
2018-03-06T06:38:54.163Z,2.43
2018-03-06T06:39:56.728Z,2.23
2018-03-06T06:40:59.327Z,2.07
2018-03-06T06:42:01.851Z,1.90
2018-03-06T06:43:04.373Z,1.85
2018-03-06T06:44:06.877Z,2.20
2018-03-06T06:45:09.415Z,2.13
2018-03-06T06:46:11.940Z,2.67
2018-03-06T06:47:14.458Z,2.00
2018-03-06T06:48:16.977Z,1.70
2018-03-06T06:49:19.486Z,1.70
2018-03-06T06:50:22.054Z,2.30
2018-03-06T06:51:24.572Z,2.20
2018-03-06T06:52:27.145Z,2.20
2018-03-06T06:53:29.666Z,3.67
2018-03-06T06:54:32.219Z,3.80
2018-03-06T06:55:34.750Z,3.03
2018-03-06T06:56:37.274Z,3.73
2018-03-06T06:57:39.814Z,9.40
2018-03-06T06:58:42.393Z,11.77
2018-03-06T06:59:44.972Z,14.33
2018-03-06T07:00:47.522Z,15.83
2018-03-06T07:01:50.090Z,17.27
2018-03-06T07:02:52.748Z,16.70
2018-03-06T07:03:55.305Z,17.80
2018-03-06T07:04:57.873Z,18.20
2018-03-06T07:06:00.426Z,19.90
2018-03-06T07:07:02.953Z,19.97
2018-03-06T07:08:05.556Z,21.90
2018-03-06T07:09:08.228Z,21.10
2018-03-06T07:10:10.768Z,22.13
2018-03-06T07:11:13.298Z,22.70
2018-03-06T07:12:15.835Z,21.30
2018-03-06T07:13:18.401Z,20.40
2018-03-06T07:14:20.918Z,21.10
2018-03-06T07:15:23.444Z,22.23
2018-03-06T07:16:25.965Z,20.90
2018-03-06T07:17:28.490Z,20.93
2018-03-06T07:18:31.037Z,20.33
2018-03-06T07:19:33.599Z,20.50
2018-03-06T07:20:36.150Z,21.45
2018-03-06T07:21:38.678Z,21.02
2018-03-06T07:22:41.210Z,19.58
2018-03-06T07:23:43.839Z,20.67
2018-03-06T07:24:46.346Z,22.37
2018-03-06T07:25:48.932Z,20.42
2018-03-06T07:26:51.488Z,21.27
2018-03-06T07:27:54.030Z,21.42
2018-03-06T07:28:56.564Z,20.75
2018-03-06T07:29:59.108Z,21.00
2018-03-06T07:31:01.665Z,21.67
2018-03-06T07:32:04.205Z,21.35
2018-03-06T07:33:06.840Z,20.88
2018-03-06T07:34:09.444Z,20.90
2018-03-06T07:35:11.978Z,21.17
2018-03-06T07:36:14.591Z,20.52
2018-03-06T07:37:17.140Z,20.65
2018-03-06T07:38:19.740Z,21.00
2018-03-06T07:39:22.362Z,19.23
2018-03-06T07:40:24.946Z,18.85
2018-03-06T07:41:27.684Z,18.55
2018-03-06T07:42:30.253Z,18.90
2018-03-06T07:43:32.791Z,18.17
2018-03-06T07:44:35.339Z,19.17
2018-03-06T07:45:37.916Z,19.85
2018-03-06T07:46:40.615Z,18.40
2018-03-06T07:47:43.379Z,16.95
2018-03-06T07:48:47.588Z,17.63
2018-03-06T07:49:50.815Z,16.55
2018-03-06T07:50:53.390Z,16.08
2018-03-06T07:51:55.954Z,15.50
2018-03-06T07:52:58.482Z,15.45
2018-03-06T07:54:01.034Z,14.73
2018-03-06T07:55:03.612Z,15.32
2018-03-06T07:56:06.193Z,14.45
2018-03-06T07:57:08.774Z,15.57
2018-03-06T07:58:11.547Z,13.93
2018-03-06T07:59:14.259Z,15.20
2018-03-06T08:00:16.801Z,12.55
2018-03-06T08:01:19.386Z,13.50
2018-03-06T08:02:21.918Z,13.47
2018-03-06T08:03:24.452Z,12.57
2018-03-06T08:04:26.978Z,12.80
2018-03-06T08:05:29.582Z,11.60
2018-03-06T08:06:32.152Z,10.65
2018-03-06T08:07:34.748Z,11.18
2018-03-06T08:08:37.708Z,11.48
2018-03-06T08:09:40.230Z,11.53
2018-03-06T08:10:42.804Z,10.70
2018-03-06T08:11:45.440Z,11.57
2018-03-06T08:12:47.963Z,10.73
2018-03-06T08:13:50.628Z,11.00
2018-03-06T08:14:53.322Z,10.97
2018-03-06T08:15:55.980Z,11.60
2018-03-06T08:16:58.517Z,11.17
2018-03-06T08:18:01.048Z,10.10
2018-03-06T08:19:03.673Z,11.10
2018-03-06T08:20:06.251Z,10.73
2018-03-06T08:21:08.893Z,10.50
2018-03-06T08:22:11.668Z,10.20
2018-03-06T08:23:14.194Z,9.97
2018-03-06T08:24:16.734Z,10.00
2018-03-06T08:25:19.274Z,10.30
2018-03-06T08:26:21.806Z,9.13
2018-03-06T08:27:24.344Z,9.33
2018-03-06T08:28:26.880Z,10.13
2018-03-06T08:29:29.393Z,9.23
2018-03-06T08:30:31.992Z,9.70
2018-03-06T08:31:34.662Z,8.87
2018-03-06T08:32:37.271Z,10.17
2018-03-06T08:33:39.811Z,9.17
2018-03-06T08:34:42.406Z,10.30
2018-03-06T08:35:45.131Z,9.70
2018-03-06T08:36:48.329Z,9.70
2018-03-06T08:37:50.859Z,9.60
2018-03-06T08:38:53.387Z,9.83
2018-03-06T08:39:56.040Z,9.60
2018-03-06T08:40:58.687Z,9.93
2018-03-06T08:42:01.209Z,9.80
2018-03-06T08:43:03.739Z,10.03
2018-03-06T08:44:06.953Z,10.00
2018-03-06T08:45:09.482Z,9.67
2018-03-06T08:46:12.014Z,9.87
2018-03-06T08:47:14.584Z,9.30
2018-03-06T08:48:17.185Z,10.23
2018-03-06T08:49:19.725Z,10.27
2018-03-06T08:50:22.246Z,10.17
2018-03-06T08:51:24.817Z,9.63
2018-03-06T08:52:27.420Z,10.33
2018-03-06T08:53:30.042Z,10.60
2018-03-06T08:54:32.593Z,9.37
2018-03-06T08:55:35.311Z,10.30
2018-03-06T08:56:38.858Z,12.30
2018-03-06T08:57:41.541Z,11.53
2018-03-06T08:58:44.157Z,12.67
2018-03-06T08:59:46.836Z,11.43
2018-03-06T09:00:49.447Z,11.90
2018-03-06T09:01:52.294Z,11.10
2018-03-06T09:02:55.097Z,10.70
2018-03-06T09:03:57.729Z,11.23
2018-03-06T09:05:00.238Z,10.07
2018-03-06T09:06:02.766Z,10.60
2018-03-06T09:07:05.282Z,10.97
2018-03-06T09:08:07.817Z,9.87
2018-03-06T09:09:10.354Z,10.83
2018-03-06T09:10:12.898Z,10.70
2018-03-06T09:11:15.422Z,10.80
2018-03-06T09:12:17.956Z,10.00
2018-03-06T09:13:20.470Z,10.40
2018-03-06T09:14:23.019Z,9.93
2018-03-06T09:15:25.542Z,9.63
2018-03-06T09:16:28.053Z,9.80
2018-03-06T09:17:30.669Z,10.50
2018-03-06T09:18:33.160Z,9.57
2018-03-06T09:19:35.688Z,10.70
2018-03-06T09:20:38.220Z,10.07
2018-03-06T09:21:40.746Z,10.03
2018-03-06T09:22:43.262Z,9.80
2018-03-06T09:23:45.773Z,10.47
2018-03-06T09:24:48.311Z,10.33
2018-03-06T09:25:50.822Z,9.83
2018-03-06T09:26:53.360Z,9.67
2018-03-06T09:27:55.888Z,10.07
2018-03-06T09:28:58.420Z,9.90
2018-03-06T09:30:00.938Z,9.70
2018-03-06T09:31:03.462Z,9.30
2018-03-06T09:32:05.986Z,9.43
2018-03-06T09:33:08.528Z,10.37
2018-03-06T09:34:11.041Z,9.13
2018-03-06T09:35:13.553Z,9.80
2018-03-06T09:36:16.090Z,10.17
2018-03-06T09:37:18.635Z,9.97
2018-03-06T09:38:21.171Z,9.50
2018-03-06T09:39:23.687Z,9.30
2018-03-06T09:40:26.214Z,10.30
2018-03-06T09:41:28.758Z,9.73
2018-03-06T09:42:31.277Z,9.43
2018-03-06T09:43:33.804Z,9.67
2018-03-06T09:44:36.339Z,10.17
2018-03-06T09:45:38.857Z,9.80
2018-03-06T09:46:41.388Z,9.10
2018-03-06T09:47:43.911Z,9.97
2018-03-06T09:48:46.422Z,9.53
2018-03-06T09:49:48.971Z,8.73
2018-03-06T09:50:51.482Z,9.20
2018-03-06T09:51:54.010Z,9.53
2018-03-06T09:52:56.518Z,9.07
2018-03-06T09:53:59.029Z,9.13
2018-03-06T09:55:01.538Z,9.03
2018-03-06T09:56:04.076Z,9.43
2018-03-06T09:57:06.620Z,9.10
2018-03-06T09:58:09.148Z,9.60
2018-03-06T09:59:11.664Z,10.27
2018-03-06T10:00:14.187Z,8.73
2018-03-06T10:01:16.795Z,10.10
2018-03-06T10:02:19.387Z,9.57
2018-03-06T10:03:22.109Z,9.60
2018-03-06T10:04:24.644Z,10.07
2018-03-06T10:05:27.183Z,9.80
2018-03-06T10:06:29.827Z,9.90
2018-03-06T10:07:32.444Z,9.70
2018-03-06T10:08:34.970Z,9.33
2018-03-06T10:09:37.523Z,9.17
2018-03-06T10:10:40.052Z,9.20
2018-03-06T10:11:42.666Z,9.50
2018-03-06T10:12:45.373Z,8.80
2018-03-06T10:13:48.168Z,9.70
2018-03-06T10:14:50.777Z,10.13
2018-03-06T10:15:53.306Z,9.30
2018-03-06T10:16:55.872Z,9.60
2018-03-06T10:17:58.415Z,9.30
2018-03-06T10:19:00.925Z,10.03
2018-03-06T10:20:03.482Z,9.43
2018-03-06T10:21:06.016Z,9.17
2018-03-06T10:22:08.527Z,9.83
2018-03-06T10:23:11.063Z,9.07
2018-03-06T10:24:13.574Z,9.70
2018-03-06T10:25:16.091Z,9.43
2018-03-06T10:26:18.966Z,9.90
2018-03-06T10:27:21.775Z,10.40
2018-03-06T10:28:24.282Z,9.83
2018-03-06T10:29:26.859Z,10.00
2018-03-06T10:30:29.373Z,9.97
2018-03-06T10:31:31.907Z,8.77
2018-03-06T10:32:35.405Z,9.77
2018-03-06T10:33:43.516Z,9.40
2018-03-06T10:35:01.506Z,9.37
2018-03-06T10:36:05.659Z,9.10
2018-03-06T10:38:30.461Z,9.03
2018-03-06T10:39:33.295Z,8.97
2018-03-06T10:40:35.822Z,8.60
2018-03-06T10:41:38.338Z,9.60
2018-03-06T10:42:40.872Z,9.30
2018-03-06T10:43:43.517Z,9.27
2018-03-06T10:44:46.050Z,9.07
2018-03-06T10:45:48.598Z,9.50
2018-03-06T10:46:51.128Z,9.10
2018-03-06T10:47:53.679Z,9.70
2018-03-06T10:48:56.208Z,9.97
2018-03-06T10:49:58.740Z,8.47
2018-03-06T10:51:01.272Z,9.10
2018-03-06T10:52:03.807Z,8.37
2018-03-06T10:53:06.338Z,9.40
2018-03-06T10:54:08.880Z,8.80
2018-03-06T10:55:11.544Z,9.67
2018-03-06T10:56:14.052Z,9.57
2018-03-06T10:57:16.600Z,10.67
2018-03-06T10:58:19.129Z,9.30
2018-03-06T10:59:21.654Z,9.40
2018-03-06T11:00:29.757Z,9.47
2018-03-06T11:01:33.212Z,8.80
2018-03-06T11:02:41.603Z,9.43
2018-03-06T11:03:44.139Z,9.63
2018-03-06T11:04:46.662Z,9.70
2018-03-06T11:05:49.187Z,9.70
2018-03-06T11:06:51.719Z,9.40
2018-03-06T11:07:54.241Z,10.37
2018-03-06T11:08:56.789Z,9.30
2018-03-06T11:09:59.305Z,9.60
2018-03-06T11:11:01.822Z,9.87
2018-03-06T11:12:04.334Z,9.90
2018-03-06T11:13:06.856Z,10.37
2018-03-06T11:14:09.456Z,10.20
2018-03-06T11:15:11.973Z,10.10
2018-03-06T11:16:14.523Z,10.00
2018-03-06T11:17:17.038Z,9.77
2018-03-06T11:18:19.587Z,10.00
2018-03-06T11:19:22.144Z,10.37
2018-03-06T11:20:24.742Z,9.33
2018-03-06T11:21:27.272Z,9.70
2018-03-06T11:22:29.804Z,9.73
2018-03-06T11:23:32.345Z,10.27
2018-03-06T11:24:34.887Z,10.27
2018-03-06T11:25:37.409Z,10.50
2018-03-06T11:26:39.930Z,9.60
2018-03-06T11:27:42.464Z,11.30
2018-03-06T11:28:45.506Z,10.23
2018-03-06T11:29:48.093Z,9.77
2018-03-06T11:30:50.700Z,10.30
2018-03-06T11:31:53.252Z,10.40
2018-03-06T11:32:55.784Z,11.40
2018-03-06T11:33:58.324Z,9.93
2018-03-06T11:35:00.965Z,10.70
2018-03-06T11:36:03.527Z,10.00
2018-03-06T11:37:06.107Z,11.07
2018-03-06T11:38:08.640Z,11.50
2018-03-06T11:39:11.153Z,11.47
2018-03-06T11:40:13.719Z,10.47
2018-03-06T11:41:16.254Z,11.97
2018-03-06T11:42:18.789Z,11.30
2018-03-06T11:43:21.338Z,12.60
2018-03-06T11:44:23.857Z,10.57
2018-03-06T11:45:26.394Z,10.70
2018-03-06T11:46:28.906Z,10.50
2018-03-06T11:47:31.436Z,10.33
2018-03-06T11:48:33.953Z,10.30
2018-03-06T11:49:36.504Z,10.73
2018-03-06T11:50:39.046Z,10.77
2018-03-06T11:51:41.562Z,10.17
2018-03-06T11:52:44.096Z,10.90
2018-03-06T11:53:46.612Z,10.40
2018-03-06T11:54:49.156Z,10.73
2018-03-06T11:55:51.694Z,12.10
2018-03-06T11:56:54.231Z,12.07
2018-03-06T11:57:56.855Z,12.63
2018-03-06T11:58:59.406Z,12.10
2018-03-06T12:00:01.953Z,11.93
2018-03-06T12:01:04.675Z,12.80
2018-03-06T12:02:07.217Z,11.40
2018-03-06T12:03:09.785Z,11.97
2018-03-06T12:04:12.312Z,11.40
2018-03-06T12:05:14.845Z,10.53
2018-03-06T12:06:17.524Z,12.27
2018-03-06T12:07:20.055Z,12.00
2018-03-06T12:08:22.594Z,11.70
2018-03-06T12:09:25.134Z,13.30
2018-03-06T12:10:27.667Z,14.10
2018-03-06T12:11:30.205Z,13.80
2018-03-06T12:12:32.719Z,13.20
2018-03-06T12:13:35.238Z,13.00
2018-03-06T12:14:37.773Z,13.07
2018-03-06T12:15:40.304Z,14.20
2018-03-06T12:16:42.962Z,12.67
2018-03-06T12:17:45.478Z,12.90
2018-03-06T12:18:48.015Z,13.90
2018-03-06T12:19:50.530Z,11.97
2018-03-06T12:20:53.046Z,12.30
2018-03-06T12:21:55.596Z,11.87
2018-03-06T12:22:58.126Z,12.40
2018-03-06T12:24:00.662Z,12.20
2018-03-06T12:25:03.195Z,11.90
2018-03-06T12:26:05.714Z,11.77
2018-03-06T12:27:08.253Z,11.40
2018-03-06T12:28:10.784Z,11.97
2018-03-06T12:29:13.308Z,11.60
2018-03-06T12:30:15.846Z,10.27
2018-03-06T12:31:18.371Z,12.10
2018-03-06T12:32:20.911Z,11.70
2018-03-06T12:33:23.494Z,11.40
2018-03-06T12:34:26.049Z,11.70
2018-03-06T12:35:28.570Z,11.17
2018-03-06T12:36:31.102Z,11.17
2018-03-06T12:37:33.644Z,11.33
2018-03-06T12:38:36.176Z,11.10
2018-03-06T12:39:38.707Z,11.27
2018-03-06T12:40:41.225Z,10.77
2018-03-06T12:41:43.760Z,11.03
2018-03-06T12:42:46.306Z,10.50
2018-03-06T12:43:48.828Z,10.73
2018-03-06T12:44:51.363Z,10.10
2018-03-06T12:45:53.916Z,10.43
2018-03-06T12:46:56.450Z,9.77
2018-03-06T12:47:59.004Z,10.80
2018-03-06T12:49:01.541Z,10.67
2018-03-06T12:50:04.606Z,10.20
2018-03-06T12:51:07.206Z,9.97
2018-03-06T12:52:10.374Z,10.10
2018-03-06T12:53:14.586Z,9.40
2018-03-06T12:54:18.305Z,9.50
2018-03-06T12:55:22.033Z,10.20
2018-03-06T12:56:24.626Z,9.83
2018-03-06T12:57:27.547Z,9.87
2018-03-06T12:58:31.420Z,9.87
2018-03-06T12:59:34.086Z,10.60
2018-03-06T13:00:36.844Z,9.50
2018-03-06T13:01:39.372Z,9.60
2018-03-06T13:02:42.061Z,9.60
2018-03-06T13:03:44.797Z,10.70
2018-03-06T13:04:48.126Z,9.30
2018-03-06T13:05:50.722Z,10.13
2018-03-06T13:06:53.257Z,11.00
2018-03-06T13:07:55.824Z,9.07
2018-03-06T13:08:58.370Z,9.20
2018-03-06T13:10:00.997Z,9.63
2018-03-06T13:11:05.329Z,9.37
2018-03-06T13:13:28.053Z,9.33
2018-03-06T13:14:31.064Z,9.90
2018-03-06T13:15:33.661Z,9.67
2018-03-06T13:16:55.561Z,9.30
2018-03-06T13:17:58.738Z,8.80
2018-03-06T13:19:07.270Z,8.80
2018-03-06T13:20:18.866Z,9.30
2018-03-06T13:21:21.419Z,9.80
2018-03-06T13:22:31.593Z,9.40
2018-03-06T13:23:36.525Z,9.17
2018-03-06T13:24:39.141Z,8.37
2018-03-06T13:25:41.706Z,8.57
2018-03-06T13:26:44.304Z,9.30
2018-03-06T13:27:46.882Z,8.90
2018-03-06T13:28:49.417Z,9.27
2018-03-06T13:29:52.028Z,9.33
2018-03-06T13:30:54.564Z,8.50
2018-03-06T13:31:57.091Z,8.90
2018-03-06T13:33:01.745Z,9.03
2018-03-06T13:34:04.331Z,8.50
2018-03-06T13:35:06.982Z,9.17
2018-03-06T13:36:09.685Z,9.27
2018-03-06T13:37:12.283Z,8.83
2018-03-06T13:38:15.008Z,8.10
2018-03-06T13:39:17.630Z,9.60
2018-03-06T13:40:20.155Z,8.97
2018-03-06T13:41:22.697Z,10.10
2018-03-06T13:42:25.221Z,10.17
2018-03-06T13:43:28.976Z,8.77
2018-03-06T13:44:31.742Z,8.80
2018-03-06T13:45:34.340Z,8.30
2018-03-06T13:46:36.872Z,9.00
2018-03-06T13:47:39.385Z,8.70
2018-03-06T13:48:41.898Z,8.83
2018-03-06T13:49:44.420Z,9.17
2018-03-06T13:50:46.943Z,8.30